Hozan Maru — JJ4010 — position and weather

sailwx.info

Track history (hours):
 
Tides and Currents Weather Stations Pressure Air Temp Water Temp Dewpoint Dewpoint Depression Visibility Wind Speed Wind Dir Waves Ship Positions

Hozan Maru

Last reported at 2016-May-04 00:32 UTC. Time now 2016-May-04 07:57 UTC.
Position N 34°40' E 135°26'.

Length 38 m; draft 3.6 m.

Type: Tug. MMSI: 431401501.

Date/timePositionNaut miles runAvg speedWind from/ knotsBaromVisibWave heightAir tempDewpointWater temp
2016-May-04 00:32N 34°40' E 135°26'7 7.4
2016-May-03 23:33N 34°39' E 135°18'0 0.0
2016-May-03 22:33N 34°39' E 135°18'0 0.1
2016-May-03 21:34N 34°39' E 135°18'6 5.5
2016-May-03 20:33N 34°39' E 135°24'1 0.1
2016-May-03 05:33N 34°40' E 135°26'7 7.0
2016-May-03 04:33N 34°40' E 135°18'0 0.2
2016-May-03 03:33N 34°40' E 135°17'0 0.1
2016-May-03 02:33N 34°40' E 135°17'0 0.4
2016-May-03 01:33N 34°40' E 135°18'0 0.1
2016-May-03 00:33N 34°40' E 135°18'6 5.9
2016-May-02 23:33N 34°39' E 135°25'  
2016-Apr-29 06:33N 34°40' E 135°26'2 2.1
2016-Apr-29 05:33N 34°39' E 135°24'1 0.9
2016-Apr-29 04:33N 34°40' E 135°25'0 0.0
2016-Apr-29 03:33N 34°40' E 135°25'2 2.1
2016-Apr-29 02:31N 34°38' E 135°27'2 0.1
2016-Apr-28 06:06N 34°40' E 135°27'2 2.9
2016-Apr-28 05:33N 34°39' E 135°26'1 1.3
2016-Apr-28 04:33N 34°39' E 135°28'1 1.1
2016-Apr-28 03:33N 34°39' E 135°27'0 0.0
2016-Apr-28 02:33N 34°39' E 135°27'0 0.0
2016-Apr-28 01:33N 34°39' E 135°27'3 2.7
2016-Apr-28 00:33N 34°38' E 135°23'5 5.1
2016-Apr-27 23:33N 34°33' E 135°26'6 5.7
2016-Apr-27 22:33N 34°39' E 135°24'3 0.2
2016-Apr-27 08:12N 34°40' E 135°27'3 4.7
2016-Apr-27 07:33N 34°39' E 135°24'2 1.8
2016-Apr-27 06:33N 34°39' E 135°26'0 0.0
2016-Apr-27 05:33N 34°39' E 135°26'0 0.0
2016-Apr-27 04:33N 34°39' E 135°26'2 1.5
2016-Apr-27 03:34N 34°40' E 135°24'5 5.4
2016-Apr-27 02:33N 34°40' E 135°17'0 0.1
2016-Apr-27 01:33N 34°40' E 135°18'0 0.2
2016-Apr-27 00:33N 34°40' E 135°18'0 0.2
2016-Apr-26 23:33N 34°40' E 135°18'6 5.7
2016-Apr-26 22:33N 34°39' E 135°24'2 0.2
2016-Apr-26 06:33N 34°40' E 135°27'4 3.6
2016-Apr-26 05:33N 34°37' E 135°24'1 1.5
2016-Apr-26 04:33N 34°36' E 135°24'0 0.0
2016-Apr-26 03:29N 34°36' E 135°24'5 5.6
2016-Apr-26 02:33N 34°31' E 135°24'3 2.2
2016-Apr-26 01:23N 34°33' E 135°23'8 9.1
2016-Apr-26 00:32N 34°40' E 135°27'0 0.0
2016-Apr-25 23:30N 34°40' E 135°27'0 0.0
2016-Apr-25 22:33N 34°40' E 135°27'0 0.0
2016-Apr-25 21:33N 34°40' E 135°27'0 0.0
2016-Apr-25 20:33N 34°40' E 135°27'0 0.0
2016-Apr-25 19:33N 34°40' E 135°27'0 0.0
2016-Apr-25 18:33N 34°40' E 135°27'0 0.0
2016-Apr-25 17:33N 34°40' E 135°27'0 0.0
2016-Apr-25 16:33N 34°40' E 135°27'0 0.0
2016-Apr-25 15:33N 34°40' E 135°27'0 0.0
2016-Apr-25 14:33N 34°40' E 135°27'0 0.0
2016-Apr-25 13:33N 34°40' E 135°27'6 5.6
2016-Apr-25 12:33N 34°36' E 135°23'1110.6
2016-Apr-25 11:33N 34°26' E 135°19'0 0.1
2016-Apr-25 10:32N 34°26' E 135°19'6 2.1
2016-Apr-25 07:29N 34°31' E 135°23'0 0.1
2016-Apr-25 06:29N 34°31' E 135°23'3 3.1
2016-Apr-25 05:33N 34°33' E 135°26'0 0.0
2016-Apr-25 04:33N 34°33' E 135°26'4 3.5
2016-Apr-25 03:33N 34°33' E 135°22'3 3.3
2016-Apr-25 02:33N 34°31' E 135°24'0 0.0
2016-Apr-25 01:33N 34°31' E 135°24'0 0.0
2016-Apr-25 00:33N 34°31' E 135°24'1 0.6
2016-Apr-24 23:32N 34°31' E 135°23'8 8.0
2016-Apr-24 22:33N 34°39' E 135°24'  
Track history (hours):
 
Tides and Currents Weather Stations Pressure Air Temp Water Temp Dewpoint Dewpoint Depression Visibility Wind Speed Wind Dir Waves Ship Positions

Hozan Maru

Last reported at 2016-May-04 00:32 UTC. Time now 2016-May-04 07:57 UTC.
Position N 34°40' E 135°26'.

Length 38 m; draft 3.6 m.

Type: Tug. MMSI: 431401501.

Date/timePositionNaut miles runAvg speedWind from/ knotsBaromVisibWave heightAir tempDewpointWater temp
2016-May-04 00:32N 34°40' E 135°26'7 7.4
2016-May-03 23:33N 34°39' E 135°18'0 0.0
2016-May-03 22:33N 34°39' E 135°18'0 0.1
2016-May-03 21:34N 34°39' E 135°18'6 5.5
2016-May-03 20:33N 34°39' E 135°24'1 0.1
2016-May-03 05:33N 34°40' E 135°26'7 7.0
2016-May-03 04:33N 34°40' E 135°18'0 0.2
2016-May-03 03:33N 34°40' E 135°17'0 0.1
2016-May-03 02:33N 34°40' E 135°17'0 0.4
2016-May-03 01:33N 34°40' E 135°18'0 0.1
2016-May-03 00:33N 34°40' E 135°18'6 5.9
2016-May-02 23:33N 34°39' E 135°25'  
2016-Apr-29 06:33N 34°40' E 135°26'2 2.1
2016-Apr-29 05:33N 34°39' E 135°24'1 0.9
2016-Apr-29 04:33N 34°40' E 135°25'0 0.0
2016-Apr-29 03:33N 34°40' E 135°25'2 2.1
2016-Apr-29 02:31N 34°38' E 135°27'2 0.1
2016-Apr-28 06:06N 34°40' E 135°27'2 2.9
2016-Apr-28 05:33N 34°39' E 135°26'1 1.3
2016-Apr-28 04:33N 34°39' E 135°28'1 1.1
2016-Apr-28 03:33N 34°39' E 135°27'0 0.0
2016-Apr-28 02:33N 34°39' E 135°27'0 0.0
2016-Apr-28 01:33N 34°39' E 135°27'3 2.7
2016-Apr-28 00:33N 34°38' E 135°23'5 5.1
2016-Apr-27 23:33N 34°33' E 135°26'6 5.7
2016-Apr-27 22:33N 34°39' E 135°24'3 0.2
2016-Apr-27 08:12N 34°40' E 135°27'3 4.7
2016-Apr-27 07:33N 34°39' E 135°24'2 1.8
2016-Apr-27 06:33N 34°39' E 135°26'0 0.0
2016-Apr-27 05:33N 34°39' E 135°26'0 0.0
2016-Apr-27 04:33N 34°39' E 135°26'2 1.5
2016-Apr-27 03:34N 34°40' E 135°24'5 5.4
2016-Apr-27 02:33N 34°40' E 135°17'0 0.1
2016-Apr-27 01:33N 34°40' E 135°18'0 0.2
2016-Apr-27 00:33N 34°40' E 135°18'0 0.2
2016-Apr-26 23:33N 34°40' E 135°18'6 5.7
2016-Apr-26 22:33N 34°39' E 135°24'2 0.2
2016-Apr-26 06:33N 34°40' E 135°27'4 3.6
2016-Apr-26 05:33N 34°37' E 135°24'1 1.5
2016-Apr-26 04:33N 34°36' E 135°24'0 0.0
2016-Apr-26 03:29N 34°36' E 135°24'5 5.6
2016-Apr-26 02:33N 34°31' E 135°24'3 2.2
2016-Apr-26 01:23N 34°33' E 135°23'8 9.1
2016-Apr-26 00:32N 34°40' E 135°27'0 0.0
2016-Apr-25 23:30N 34°40' E 135°27'0 0.0
2016-Apr-25 22:33N 34°40' E 135°27'0 0.0
2016-Apr-25 21:33N 34°40' E 135°27'0 0.0
2016-Apr-25 20:33N 34°40' E 135°27'0 0.0
2016-Apr-25 19:33N 34°40' E 135°27'0 0.0
2016-Apr-25 18:33N 34°40' E 135°27'0 0.0
2016-Apr-25 17:33N 34°40' E 135°27'0 0.0
2016-Apr-25 16:33N 34°40' E 135°27'0 0.0
2016-Apr-25 15:33N 34°40' E 135°27'0 0.0
2016-Apr-25 14:33N 34°40' E 135°27'0 0.0
2016-Apr-25 13:33N 34°40' E 135°27'6 5.6
2016-Apr-25 12:33N 34°36' E 135°23'1110.6
2016-Apr-25 11:33N 34°26' E 135°19'0 0.1
2016-Apr-25 10:32N 34°26' E 135°19'6 2.1
2016-Apr-25 07:29N 34°31' E 135°23'0 0.1
2016-Apr-25 06:29N 34°31' E 135°23'3 3.1
2016-Apr-25 05:33N 34°33' E 135°26'0 0.0
2016-Apr-25 04:33N 34°33' E 135°26'4 3.5
2016-Apr-25 03:33N 34°33' E 135°22'3 3.3
2016-Apr-25 02:33N 34°31' E 135°24'0 0.0
2016-Apr-25 01:33N 34°31' E 135°24'0 0.0
2016-Apr-25 00:33N 34°31' E 135°24'1 0.6
2016-Apr-24 23:32N 34°31' E 135°23'8 8.0
2016-Apr-24 22:33N 34°39' E 135°24'  

Dump ship's entire track history